sensor_id;sensor_type;location;lat;lon;timestamp;pressure;altitude;pressure_sealevel;temperature;humidity
71956;BME280;59829;50.562;6.258;2024-02-23T00:03:34;93259.50;;;13.37;79.64
71956;BME280;59829;50.562;6.258;2024-02-23T00:13:36;93297.47;;;13.35;79.64
71956;BME280;59829;50.562;6.258;2024-02-23T00:23:36;93305.19;;;13.35;79.78
71956;BME280;59829;50.562;6.258;2024-02-23T00:33:37;93308.38;;;13.37;79.78
71956;BME280;59829;50.562;6.258;2024-02-23T00:43:38;93332.28;;;13.38;79.95
71956;BME280;59829;50.562;6.258;2024-02-23T00:53:39;93341.78;;;13.37;80.03
71956;BME280;59829;50.562;6.258;2024-02-23T01:03:39;93343.38;;;13.38;80.00
71956;BME280;59829;50.562;6.258;2024-02-23T01:13:40;93347.53;;;13.39;80.06
71956;BME280;59829;50.562;6.258;2024-02-23T01:23:40;93342.38;;;13.39;80.02
71956;BME280;59829;50.562;6.258;2024-02-23T01:33:40;93343.38;;;13.38;80.06
71956;BME280;59829;50.562;6.258;2024-02-23T01:43:41;93356.03;;;13.40;80.10
71956;BME280;59829;50.562;6.258;2024-02-23T01:53:41;93375.81;;;13.39;80.04
71956;BME280;59829;50.562;6.258;2024-02-23T02:03:42;93383.31;;;13.41;79.95
71956;BME280;59829;50.562;6.258;2024-02-23T02:13:43;93392.81;;;13.40;80.03
71956;BME280;59829;50.562;6.258;2024-02-23T02:23:43;93393.59;;;13.41;79.92
71956;BME280;59829;50.562;6.258;2024-02-23T02:33:43;93392.63;;;13.42;79.88
71956;BME280;59829;50.562;6.258;2024-02-23T02:43:44;93392.03;;;13.40;79.75
71956;BME280;59829;50.562;6.258;2024-02-23T02:53:44;93412.59;;;13.40;79.77
71956;BME280;59829;50.562;6.258;2024-02-23T03:03:44;93423.09;;;13.38;79.82
71956;BME280;59829;50.562;6.258;2024-02-23T03:13:45;93414.59;;;13.38;79.82
71956;BME280;59829;50.562;6.258;2024-02-23T03:23:45;93412.81;;;13.38;79.75
71956;BME280;59829;50.562;6.258;2024-02-23T03:33:45;93405.09;;;13.38;79.81
71956;BME280;59829;50.562;6.258;2024-02-23T03:43:46;93406.66;;;13.39;79.87
71956;BME280;59829;50.562;6.258;2024-02-23T03:53:49;93396.38;;;13.39;79.65
71956;BME280;59829;50.562;6.258;2024-02-23T04:03:49;93410.81;;;13.40;79.72
71956;BME280;59829;50.562;6.258;2024-02-23T04:13:50;93413.38;;;13.40;79.68
71956;BME280;59829;50.562;6.258;2024-02-23T04:23:50;93428.03;;;13.40;79.66
71956;BME280;59829;50.562;6.258;2024-02-23T04:33:51;93428.03;;;13.40;79.51
71956;BME280;59829;50.562;6.258;2024-02-23T04:43:51;93427.03;;;13.41;79.56
71956;BME280;59829;50.562;6.258;2024-02-23T04:53:52;93416.75;;;13.41;79.46
71956;BME280;59829;50.562;6.258;2024-02-23T05:03:52;93404.28;;;13.44;79.36
71956;BME280;59829;50.562;6.258;2024-02-23T05:13:53;93392.22;;;13.45;79.19
71956;BME280;59829;50.562;6.258;2024-02-23T05:23:53;93380.16;;;13.45;78.98
71956;BME280;59829;50.562;6.258;2024-02-23T05:33:54;93361.16;;;13.46;78.87
71956;BME280;59829;50.562;6.258;2024-02-23T05:43:54;93359.97;;;13.49;78.71
71956;BME280;59829;50.562;6.258;2024-02-23T05:53:55;93333.44;;;13.48;78.59
71956;BME280;59829;50.562;6.258;2024-02-23T06:03:55;93329.88;;;13.49;78.45
71956;BME280;59829;50.562;6.258;2024-02-23T06:13:55;93326.72;;;13.47;78.26
71956;BME280;59829;50.562;6.258;2024-02-23T06:23:56;93316.84;;;13.44;78.11
71956;BME280;59829;50.562;6.258;2024-02-23T06:33:56;93328.53;;;13.40;77.99
71956;BME280;59829;50.562;6.258;2024-02-23T06:43:57;93318.25;;;13.40;77.90
71956;BME280;59829;50.562;6.258;2024-02-23T06:53:57;93308.94;;;13.39;77.90
71956;BME280;59829;50.562;6.258;2024-02-23T07:03:58;93297.88;;;13.39;77.70
71956;BME280;59829;50.562;6.258;2024-02-23T07:13:58;93290.38;;;13.37;77.48
71956;BME280;59829;50.562;6.258;2024-02-23T07:23:59;93299.03;;;13.36;77.21
71956;BME280;59829;50.562;6.258;2024-02-23T07:34:00;93297.09;;;13.38;76.98
71956;BME280;59829;50.562;6.258;2024-02-23T07:44:00;93299.47;;;13.40;76.77
71956;BME280;59829;50.562;6.258;2024-02-23T07:54:01;93317.66;;;13.38;76.82
71956;BME280;59829;50.562;6.258;2024-02-23T08:04:01;93323.38;;;13.40;76.62
71956;BME280;59829;50.562;6.258;2024-02-23T08:14:03;93317.25;;;13.41;76.43
71956;BME280;59829;50.562;6.258;2024-02-23T08:24:03;93340.00;;;13.44;76.34
71956;BME280;59829;50.562;6.258;2024-02-23T08:34:04;93341.00;;;13.43;76.15
71956;BME280;59829;50.562;6.258;2024-02-23T08:44:04;93354.84;;;13.42;75.99
71956;BME280;59829;50.562;6.258;2024-02-23T08:54:04;93336.41;;;13.58;76.11
71956;BME280;59829;50.562;6.258;2024-02-23T09:04:06;93336.00;;;13.62;75.83
71956;BME280;59829;50.562;6.258;2024-02-23T09:14:07;93330.47;;;13.58;75.79
71956;BME280;59829;50.562;6.258;2024-02-23T09:24:07;93341.34;;;13.53;75.76
71956;BME280;59829;50.562;6.258;2024-02-23T09:34:07;93346.50;;;13.53;75.77
71956;BME280;59829;50.562;6.258;2024-02-23T09:44:08;93365.50;;;13.52;75.89
71956;BME280;59829;50.562;6.258;2024-02-23T09:54:10;93385.69;;;13.55;75.81
71956;BME280;59829;50.562;6.258;2024-02-23T10:04:10;93386.66;;;13.68;76.07
71956;BME280;59829;50.562;6.258;2024-02-23T10:14:11;93390.22;;;13.73;75.82
71956;BME280;59829;50.562;6.258;2024-02-23T10:24:11;93413.19;;;13.75;75.93
71956;BME280;59829;50.562;6.258;2024-02-23T10:34:11;93423.28;;;13.76;75.86
71956;BME280;59829;50.562;6.258;2024-02-23T10:44:16;93420.91;;;13.75;75.94
71956;BME280;59829;50.562;6.258;2024-02-23T10:54:19;93409.63;;;13.76;75.82
71956;BME280;59829;50.562;6.258;2024-02-23T11:04:21;93421.28;;;13.78;75.78
71956;BME280;59829;50.562;6.258;2024-02-23T11:14:36;93421.09;;;13.80;75.64
71956;BME280;59829;50.562;6.258;2024-02-23T11:24:42;93430.38;;;13.81;75.45
71956;BME280;59829;50.562;6.258;2024-02-23T11:34:57;93436.53;;;13.80;75.15
71956;BME280;59829;50.562;6.258;2024-02-23T11:44:57;93442.47;;;13.80;74.97
71956;BME280;59829;50.562;6.258;2024-02-23T11:54:59;93440.69;;;13.81;74.78
71956;BME280;59829;50.562;6.258;2024-02-23T12:04:59;93444.03;;;13.81;74.83
71956;BME280;59829;50.562;6.258;2024-02-23T12:14:59;93430.38;;;13.81;74.66
71956;BME280;59829;50.562;6.258;2024-02-23T12:25:00;93437.50;;;13.79;74.42
71956;BME280;59829;50.562;6.258;2024-02-23T12:35:00;93420.09;;;13.81;74.45
71956;BME280;59829;50.562;6.258;2024-02-23T12:45:01;93433.13;;;13.86;74.23
71956;BME280;59829;50.562;6.258;2024-02-23T12:55:01;93435.53;;;13.81;74.00
71956;BME280;59829;50.562;6.258;2024-02-23T13:05:01;93431.78;;;13.90;74.04
71956;BME280;59829;50.562;6.258;2024-02-23T13:15:02;93431.56;;;13.98;73.97
71956;BME280;59829;50.562;6.258;2024-02-23T13:25:02;93423.00;;;14.04;73.96
71956;BME280;59829;50.562;6.258;2024-02-23T13:35:03;93406.19;;;14.08;73.93
71956;BME280;59829;50.562;6.258;2024-02-23T13:45:07;93410.94;;;14.11;73.64
71956;BME280;59829;50.562;6.258;2024-02-23T13:55:08;93414.50;;;14.10;73.49
71956;BME280;59829;50.562;6.258;2024-02-23T14:05:09;93417.88;;;14.11;73.45
71956;BME280;59829;50.562;6.258;2024-02-23T14:15:09;93414.50;;;14.10;73.25
71956;BME280;59829;50.562;6.258;2024-02-23T14:25:10;93426.75;;;14.15;73.41
71956;BME280;59829;50.562;6.258;2024-02-23T14:35:11;93402.97;;;14.19;73.27
71956;BME280;59829;50.562;6.258;2024-02-23T14:45:11;93421.59;;;14.22;73.06
71956;BME280;59829;50.562;6.258;2024-02-23T14:55:13;93427.16;;;14.18;72.83
71956;BME280;59829;50.562;6.258;2024-02-23T15:05:14;93434.50;;;14.15;72.80
71956;BME280;59829;50.562;6.258;2024-02-23T15:15:14;93441.41;;;14.14;72.80
71956;BME280;59829;50.562;6.258;2024-02-23T15:25:15;93432.69;;;14.15;72.92
71956;BME280;59829;50.562;6.258;2024-02-23T15:35:16;93433.88;;;14.19;72.97
71956;BME280;59829;50.562;6.258;2024-02-23T15:45:17;93441.59;;;14.19;72.80
71956;BME280;59829;50.562;6.258;2024-02-23T15:55:17;93441.00;;;14.17;72.85
71956;BME280;59829;50.562;6.258;2024-02-23T16:05:17;93453.31;;;14.15;72.95
71956;BME280;59829;50.562;6.258;2024-02-23T16:15:18;93456.88;;;14.14;72.87
71956;BME280;59829;50.562;6.258;2024-02-23T16:25:19;93453.72;;;14.12;73.07
71956;BME280;59829;50.562;6.258;2024-02-23T16:35:20;93458.84;;;14.12;72.99
71956;BME280;59829;50.562;6.258;2024-02-23T16:45:21;93466.81;;;13.65;71.91
71956;BME280;59829;50.562;6.258;2024-02-23T16:55:21;93471.91;;;13.25;71.03
71956;BME280;59829;50.562;6.258;2024-02-23T17:05:22;93487.63;;;12.95;70.50
71956;BME280;59829;50.562;6.258;2024-02-23T17:15:22;93481.34;;;12.57;69.56
71956;BME280;59829;50.562;6.258;2024-02-23T17:25:23;93486.94;;;11.98;68.78
71956;BME280;59829;50.562;6.258;2024-02-23T17:35:23;93504.56;;;11.58;68.21
71956;BME280;59829;50.562;6.258;2024-02-23T17:45:34;93503.94;;;11.56;68.45
71956;BME280;59829;50.562;6.258;2024-02-23T17:55:35;93526.88;;;12.07;68.76
71956;BME280;59829;50.562;6.258;2024-02-23T18:05:36;93526.50;;;12.38;69.21
71956;BME280;59829;50.562;6.258;2024-02-23T18:15:36;93513.16;;;12.56;69.55
71956;BME280;59829;50.562;6.258;2024-02-23T18:25:43;93516.78;;;12.68;69.93
71956;BME280;59829;50.562;6.258;2024-02-23T18:36:05;93514.03;;;12.76;70.16
71956;BME280;59829;50.562;6.258;2024-02-23T18:46:46;93532.44;;;12.80;70.44
71956;BME280;59829;50.562;6.258;2024-02-23T18:56:55;93535.41;;;12.83;70.61
71956;BME280;59829;50.562;6.258;2024-02-23T19:07:04;93537.00;;;12.84;70.78
71956;BME280;59829;50.562;6.258;2024-02-23T19:28:02;93520.59;;;12.85;71.09
71956;BME280;59829;50.562;6.258;2024-02-23T19:38:03;93529.91;;;12.86;71.25
71956;BME280;59829;50.562;6.258;2024-02-23T19:48:13;93539.38;;;12.86;71.25
71956;BME280;59829;50.562;6.258;2024-02-23T19:58:35;93545.31;;;12.86;71.31
71956;BME280;59829;50.562;6.258;2024-02-23T20:08:52;93555.59;;;12.86;71.48
71956;BME280;59829;50.562;6.258;2024-02-23T20:29:19;93546.91;;;12.87;71.49
71956;BME280;59829;50.562;6.258;2024-02-23T20:40:02;93559.16;;;12.85;71.56
71956;BME280;59829;50.562;6.258;2024-02-23T20:50:26;93566.22;;;12.83;71.50
71956;BME280;59829;50.562;6.258;2024-02-23T21:00:39;93581.84;;;12.82;71.66
71956;BME280;59829;50.562;6.258;2024-02-23T21:10:45;93580.06;;;12.82;71.77
71956;BME280;59829;50.562;6.258;2024-02-23T21:21:45;93586.19;;;12.81;71.80
71956;BME280;59829;50.562;6.258;2024-02-23T21:31:45;93584.59;;;12.80;71.68
71956;BME280;59829;50.562;6.258;2024-02-23T21:41:46;93584.59;;;12.80;71.77
71956;BME280;59829;50.562;6.258;2024-02-23T21:52:11;93578.84;;;12.78;71.70
71956;BME280;59829;50.562;6.258;2024-02-23T22:02:31;93567.78;;;12.78;71.76
71956;BME280;59829;50.562;6.258;2024-02-23T22:12:47;93578.84;;;12.78;71.70
71956;BME280;59829;50.562;6.258;2024-02-23T22:23:13;93569.56;;;12.77;71.81
71956;BME280;59829;50.562;6.258;2024-02-23T22:33:43;93575.69;;;12.76;71.91
71956;BME280;59829;50.562;6.258;2024-02-23T22:43:59;93571.53;;;12.75;71.80
71956;BME280;59829;50.562;6.258;2024-02-23T22:54:16;93559.88;;;12.73;71.77
71956;BME280;59829;50.562;6.258;2024-02-23T23:04:16;93566.19;;;12.70;71.81
71956;BME280;59829;50.562;6.258;2024-02-23T23:14:17;93579.41;;;12.67;71.80
71956;BME280;59829;50.562;6.258;2024-02-23T23:24:35;93585.50;;;12.66;71.73
71956;BME280;59829;50.562;6.258;2024-02-23T23:35:01;93589.06;;;12.65;71.73
71956;BME280;59829;50.562;6.258;2024-02-23T23:45:17;93598.72;;;12.63;71.76
71956;BME280;59829;50.562;6.258;2024-02-23T23:55:29;93578.38;;;12.61;71.67
